sensor_id;sensor_type;location;lat;lon;timestamp;pressure;altitude;pressure_sealevel;temperature;humidity
56632;BME280;42503;39.928;-75.152;2023-02-03T00:04:44;101372.94;;;22.27;32.35
56632;BME280;42503;39.928;-75.152;2023-02-03T00:14:45;101355.91;;;22.28;32.28
56632;BME280;42503;39.928;-75.152;2023-02-03T00:24:47;101348.69;;;22.27;32.23
56632;BME280;42503;39.928;-75.152;2023-02-03T00:34:48;101358.13;;;22.26;31.77
56632;BME280;42503;39.928;-75.152;2023-02-03T00:44:49;101324.16;;;22.19;31.23
56632;BME280;42503;39.928;-75.152;2023-02-03T00:54:51;101334.72;;;22.17;31.80
56632;BME280;42503;39.928;-75.152;2023-02-03T01:04:52;101317.19;;;22.12;32.22
56632;BME280;42503;39.928;-75.152;2023-02-03T01:14:56;101291.22;;;22.11;32.07
56632;BME280;42503;39.928;-75.152;2023-02-03T01:24:58;101276.22;;;22.12;31.75
56632;BME280;42503;39.928;-75.152;2023-02-03T01:35:02;101260.88;;;21.94;31.85
56632;BME280;42503;39.928;-75.152;2023-02-03T01:45:04;101175.94;;;21.56;31.80
56632;BME280;42503;39.928;-75.152;2023-02-03T01:55:12;101223.81;;;21.99;31.73
56632;BME280;42503;39.928;-75.152;2023-02-03T02:06:11;101211.28;;;21.91;32.15
56632;BME280;42503;39.928;-75.152;2023-02-03T02:36:50;101202.38;;;21.79;31.04
56632;BME280;42503;39.928;-75.152;2023-02-03T02:47:01;101183.13;;;21.93;31.28
56632;BME280;42503;39.928;-75.152;2023-02-03T02:57:05;101160.00;;;21.97;31.02
56632;BME280;42503;39.928;-75.152;2023-02-03T03:07:17;101170.31;;;21.97;30.72
56632;BME280;42503;39.928;-75.152;2023-02-03T03:17:26;101156.38;;;21.97;30.96
56632;BME280;42503;39.928;-75.152;2023-02-03T03:27:36;101134.63;;;21.99;31.33
56632;BME280;42503;39.928;-75.152;2023-02-03T03:37:45;101117.91;;;21.99;30.92
56632;BME280;42503;39.928;-75.152;2023-02-03T03:48:05;101091.19;;;21.93;30.98
56632;BME280;42503;39.928;-75.152;2023-02-03T03:58:15;101090.03;;;21.99;31.03
56632;BME280;42503;39.928;-75.152;2023-02-03T04:08:19;101091.16;;;21.98;31.14
56632;BME280;42503;39.928;-75.152;2023-02-03T04:18:20;101105.94;;;21.98;30.96
56632;BME280;42503;39.928;-75.152;2023-02-03T04:28:21;101077.38;;;21.52;30.86
56632;BME280;42503;39.928;-75.152;2023-02-03T04:38:23;101110.16;;;21.96;31.16
56632;BME280;42503;39.928;-75.152;2023-02-03T04:48:25;101107.91;;;21.93;31.57
56632;BME280;42503;39.928;-75.152;2023-02-03T04:58:26;101085.06;;;21.96;31.51
56632;BME280;42503;39.928;-75.152;2023-02-03T05:08:29;101062.50;;;21.92;31.60
56632;BME280;42503;39.928;-75.152;2023-02-03T05:18:30;101065.00;;;21.94;31.54
56632;BME280;42503;39.928;-75.152;2023-02-03T05:28:32;101052.75;;;21.95;31.47
56632;BME280;42503;39.928;-75.152;2023-02-03T05:38:33;101048.88;;;21.91;31.67
56632;BME280;42503;39.928;-75.152;2023-02-03T05:48:35;101047.19;;;21.90;31.77
56632;BME280;42503;39.928;-75.152;2023-02-03T05:58:36;101005.69;;;21.88;31.82
56632;BME280;42503;39.928;-75.152;2023-02-03T06:08:38;101014.34;;;21.87;32.12
56632;BME280;42503;39.928;-75.152;2023-02-03T06:18:39;100988.13;;;21.88;31.71
56632;BME280;42503;39.928;-75.152;2023-02-03T06:28:40;100977.56;;;21.85;31.72
56632;BME280;42503;39.928;-75.152;2023-02-03T06:38:42;100943.63;;;21.77;31.92
56632;BME280;42503;39.928;-75.152;2023-02-03T06:48:43;100950.78;;;21.89;31.99
56632;BME280;42503;39.928;-75.152;2023-02-03T06:58:44;100954.38;;;21.94;31.72
56632;BME280;42503;39.928;-75.152;2023-02-03T07:08:48;100951.31;;;21.96;31.73
56632;BME280;42503;39.928;-75.152;2023-02-03T07:18:53;100929.69;;;21.77;31.42
56632;BME280;42503;39.928;-75.152;2023-02-03T07:28:54;100969.41;;;21.98;31.60
56632;BME280;42503;39.928;-75.152;2023-02-03T07:38:56;100953.50;;;21.99;31.51
56632;BME280;42503;39.928;-75.152;2023-02-03T07:48:57;100938.53;;;21.95;31.08
56632;BME280;42503;39.928;-75.152;2023-02-03T07:58:58;100968.56;;;21.98;31.28
56632;BME280;42503;39.928;-75.152;2023-02-03T08:09:00;100953.28;;;21.95;31.30
56632;BME280;42503;39.928;-75.152;2023-02-03T08:19:01;100938.53;;;21.95;31.02
56632;BME280;42503;39.928;-75.152;2023-02-03T08:29:03;100917.31;;;21.94;30.86
56632;BME280;42503;39.928;-75.152;2023-02-03T08:39:05;100912.06;;;21.92;31.27
56632;BME280;42503;39.928;-75.152;2023-02-03T08:49:07;100913.44;;;21.90;31.48
56632;BME280;42503;39.928;-75.152;2023-02-03T08:59:12;100872.97;;;21.63;31.40
56632;BME280;42503;39.928;-75.152;2023-02-03T09:09:14;100851.78;;;21.62;31.50
56632;BME280;42503;39.928;-75.152;2023-02-03T09:19:15;100881.75;;;21.80;31.47
56632;BME280;42503;39.928;-75.152;2023-02-03T09:29:18;100901.25;;;21.80;31.79
56632;BME280;42503;39.928;-75.152;2023-02-03T09:39:20;100902.38;;;21.79;31.55
56632;BME280;42503;39.928;-75.152;2023-02-03T09:49:26;100886.91;;;21.63;31.69
56632;BME280;42503;39.928;-75.152;2023-02-03T09:59:32;100926.91;;;21.77;31.50
56632;BME280;42503;39.928;-75.152;2023-02-03T10:10:21;100929.75;;;21.67;31.40
56632;BME280;42503;39.928;-75.152;2023-02-03T10:20:34;100954.19;;;21.75;31.38
56632;BME280;42503;39.928;-75.152;2023-02-03T10:30:41;100936.19;;;21.63;31.67
56632;BME280;42503;39.928;-75.152;2023-02-03T10:40:45;100998.75;;;21.86;31.30
56632;BME280;42503;39.928;-75.152;2023-02-03T10:50:49;101104.84;;;21.89;31.17
56632;BME280;42503;39.928;-75.152;2023-02-03T11:01:13;101089.59;;;21.71;31.41
56632;BME280;42503;39.928;-75.152;2023-02-03T11:31:33;101195.13;;;21.88;30.77
56632;BME280;42503;39.928;-75.152;2023-02-03T11:41:38;101217.72;;;21.87;30.70
56632;BME280;42503;39.928;-75.152;2023-02-03T11:51:53;101241.09;;;21.80;31.14
56632;BME280;42503;39.928;-75.152;2023-02-03T12:02:36;101263.66;;;21.79;31.10
56632;BME280;42503;39.928;-75.152;2023-02-03T12:12:50;101286.25;;;21.82;31.10
56632;BME280;42503;39.928;-75.152;2023-02-03T12:33:21;101351.44;;;21.76;30.66
56632;BME280;42503;39.928;-75.152;2023-02-03T12:43:32;101391.81;;;21.74;31.04
56632;BME280;42503;39.928;-75.152;2023-02-03T12:53:47;101438.31;;;21.73;30.84
56632;BME280;42503;39.928;-75.152;2023-02-03T13:04:00;101455.03;;;21.73;30.91
56632;BME280;42503;39.928;-75.152;2023-02-03T13:14:14;101492.38;;;21.72;31.24
56632;BME280;42503;39.928;-75.152;2023-02-03T13:24:24;101501.81;;;21.71;31.34
56632;BME280;42503;39.928;-75.152;2023-02-03T13:44:28;101542.50;;;21.67;30.49
56632;BME280;42503;39.928;-75.152;2023-02-03T13:54:42;101533.44;;;21.40;30.80
56632;BME280;42503;39.928;-75.152;2023-02-03T14:24:53;101669.03;;;21.81;30.58
56632;BME280;42503;39.928;-75.152;2023-02-03T14:34:57;101682.41;;;21.85;30.70
56632;BME280;42503;39.928;-75.152;2023-02-03T14:46:03;101695.19;;;21.80;31.08
56632;BME280;42503;39.928;-75.152;2023-02-03T14:56:06;101711.69;;;21.87;30.51
56632;BME280;42503;39.928;-75.152;2023-02-03T15:06:38;101710.03;;;21.86;30.44
56632;BME280;42503;39.928;-75.152;2023-02-03T15:16:42;101687.44;;;21.82;29.91
56632;BME280;42503;39.928;-75.152;2023-02-03T15:26:49;101695.75;;;21.77;30.26
56632;BME280;42503;39.928;-75.152;2023-02-03T15:36:54;101719.22;;;21.87;30.26
56632;BME280;42503;39.928;-75.152;2023-02-03T15:46:57;101763.84;;;21.92;30.16
56632;BME280;42503;39.928;-75.152;2023-02-03T15:57:08;101770.53;;;21.91;30.36
56632;BME280;42503;39.928;-75.152;2023-02-03T16:07:17;101780.03;;;21.95;30.77
56632;BME280;42503;39.928;-75.152;2023-02-03T16:27:31;101773.00;;;21.87;30.75
56632;BME280;42503;39.928;-75.152;2023-02-03T16:37:42;101795.81;;;21.84;30.80
56632;BME280;42503;39.928;-75.152;2023-02-03T16:48:02;101766.00;;;21.85;31.12
56632;BME280;42503;39.928;-75.152;2023-02-03T16:58:22;101771.00;;;21.82;30.86
56632;BME280;42503;39.928;-75.152;2023-02-03T17:08:25;101764.31;;;21.83;31.12
56632;BME280;42503;39.928;-75.152;2023-02-03T17:18:29;101710.66;;;21.61;31.37
56632;BME280;42503;39.928;-75.152;2023-02-03T17:28:33;101723.34;;;21.79;30.88
56632;BME280;42503;39.928;-75.152;2023-02-03T17:38:46;101734.78;;;21.82;31.12
56632;BME280;42503;39.928;-75.152;2023-02-03T17:48:47;101730.38;;;21.87;31.27
56632;BME280;42503;39.928;-75.152;2023-02-03T17:58:54;101733.75;;;21.94;31.50
56632;BME280;42503;39.928;-75.152;2023-02-03T18:08:56;101727.13;;;22.05;31.29
56632;BME280;42503;39.928;-75.152;2023-02-03T18:19:04;101745.31;;;22.13;31.31
56632;BME280;42503;39.928;-75.152;2023-02-03T18:29:06;101761.28;;;22.22;31.08
56632;BME280;42503;39.928;-75.152;2023-02-03T18:39:12;101774.72;;;22.36;31.37
56632;BME280;42503;39.928;-75.152;2023-02-03T18:49:17;101778.66;;;22.45;30.96
56632;BME280;42503;39.928;-75.152;2023-02-03T18:59:19;101813.56;;;22.52;31.07
56632;BME280;42503;39.928;-75.152;2023-02-03T19:09:20;101809.97;;;22.57;30.73
56632;BME280;42503;39.928;-75.152;2023-02-03T19:19:23;101828.38;;;22.58;30.67
56632;BME280;42503;39.928;-75.152;2023-02-03T19:29:25;101849.63;;;22.64;30.98
56632;BME280;42503;39.928;-75.152;2023-02-03T19:39:26;101850.47;;;22.65;30.43
56632;BME280;42503;39.928;-75.152;2023-02-03T19:49:27;101884.78;;;22.65;30.46
56632;BME280;42503;39.928;-75.152;2023-02-03T19:59:29;101914.66;;;22.70;30.19
56632;BME280;42503;39.928;-75.152;2023-02-03T20:09:30;101922.72;;;22.66;30.19
56632;BME280;42503;39.928;-75.152;2023-02-03T20:19:32;101955.69;;;22.69;30.26
56632;BME280;42503;39.928;-75.152;2023-02-03T20:29:33;101976.88;;;22.70;30.68
56632;BME280;42503;39.928;-75.152;2023-02-03T20:39:38;101983.03;;;22.72;30.52
56632;BME280;42503;39.928;-75.152;2023-02-03T20:49:39;101988.56;;;22.67;30.72
56632;BME280;42503;39.928;-75.152;2023-02-03T20:59:45;102017.63;;;22.71;30.52
56632;BME280;42503;39.928;-75.152;2023-02-03T21:09:46;102050.53;;;22.69;30.63
56632;BME280;42503;39.928;-75.152;2023-02-03T21:19:48;102069.44;;;22.62;29.34
56632;BME280;42503;39.928;-75.152;2023-02-03T21:29:52;102106.88;;;22.66;28.67
56632;BME280;42503;39.928;-75.152;2023-02-03T21:39:56;102128.06;;;22.67;29.33
56632;BME280;42503;39.928;-75.152;2023-02-03T21:49:59;102144.81;;;22.67;29.84
56632;BME280;42503;39.928;-75.152;2023-02-03T22:00:00;102178.63;;;22.71;30.33
56632;BME280;42503;39.928;-75.152;2023-02-03T22:10:02;102204.63;;;22.76;29.05
56632;BME280;42503;39.928;-75.152;2023-02-03T22:20:09;102222.03;;;22.83;28.29
56632;BME280;42503;39.928;-75.152;2023-02-03T22:30:14;102265.19;;;22.98;28.20
56632;BME280;42503;39.928;-75.152;2023-02-03T22:40:20;102290.69;;;23.06;27.78
56632;BME280;42503;39.928;-75.152;2023-02-03T22:50:22;102300.22;;;23.11;27.58
56632;BME280;42503;39.928;-75.152;2023-02-03T23:00:24;102324.00;;;23.18;27.56
56632;BME280;42503;39.928;-75.152;2023-02-03T23:10:27;102350.72;;;23.09;28.17
56632;BME280;42503;39.928;-75.152;2023-02-03T23:20:34;102386.34;;;22.97;28.02
56632;BME280;42503;39.928;-75.152;2023-02-03T23:30:36;102417.97;;;22.86;27.29
56632;BME280;42503;39.928;-75.152;2023-02-03T23:40:37;102443.44;;;22.72;27.13
56632;BME280;42503;39.928;-75.152;2023-02-03T23:50:38;102458.88;;;22.58;27.51
